Time;durP1;ratioP1;P1;durP2;ratioP2;P2;SDS_P1;SDS_P2;PMS_P1;PMS_P2;Temp;Humidity;BMP_temperature;BMP_pressure;BME280_temperature;BME280_humidity;BME280_pressure;Samples;Min_cycle;Max_cycle;Signal;HPM_P1;HPM_P2
2021/12/03 00:01:05;;;;;;;38.30;27.73;;;;;;;;;;5054410;28;20435;-38
2021/12/03 00:03:34;;;;;;;42.90;28.17;;;;;;;;;;5054511;28;20033;-37
2021/12/03 00:06:00;;;;;;;46.58;31.85;;;;;;;;;;5054569;28;20400;-45
2021/12/03 00:08:26;;;;;;;151.55;80.45;;;;;;;;;;5054569;28;20032;-47
2021/12/03 00:11:01;;;;;;;54.38;32.33;;;;;;;;;;5040498;28;20036;-46
2021/12/03 00:13:28;;;;;;;39.80;26.48;;;;;;;;;;5032937;28;20029;-46
2021/12/03 00:15:55;;;;;;;41.53;27.15;;;;;;;;;;5033388;28;20115;-44
2021/12/03 00:18:21;;;;;;;42.17;26.58;;;;;;;;;;5033723;28;20037;-46
2021/12/03 00:20:49;;;;;;;46.58;30.05;;;;;;;;;;5034258;28;20025;-46
2021/12/03 00:23:15;;;;;;;47.33;28.15;;;;;;;;;;5034070;28;20099;-44
2021/12/03 00:25:41;;;;;;;33.33;22.52;;;;;;;;;;5034103;28;20074;-47
2021/12/03 00:28:08;;;;;;;24.20;17.02;;;;;;;;;;5034137;28;20477;-47
2021/12/03 00:30:37;;;;;;;24.20;16.27;;;;;;;;;;5034202;28;20041;-46
2021/12/03 00:33:04;;;;;;;20.95;15.50;;;;;;;;;;5034080;28;20022;-46
2021/12/03 00:35:33;;;;;;;16.17;12.90;;;;;;;;;;5033941;28;20025;-45
2021/12/03 00:37:59;;;;;;;27.35;16.63;;;;;;;;;;5034130;28;20052;-45
2021/12/03 00:40:27;;;;;;;11.90;9.85;;;;;;;;;;5033990;28;20067;-45
2021/12/03 00:42:53;;;;;;;13.05;9.18;;;;;;;;;;5033713;28;20043;-46
2021/12/03 00:45:20;;;;;;;22.35;13.70;;;;;;;;;;5033882;28;20041;-46
2021/12/03 00:47:47;;;;;;;15.65;8.68;;;;;;;;;;5033671;28;20087;-46
2021/12/03 00:50:17;;;;;;;11.82;7.45;;;;;;;;;;5033697;28;20033;-46
2021/12/03 00:52:43;;;;;;;17.80;10.35;;;;;;;;;;5033779;28;20032;-47
2021/12/03 00:55:10;;;;;;;11.50;7.90;;;;;;;;;;5033813;28;20057;-52
2021/12/03 00:57:36;;;;;;;14.90;8.07;;;;;;;;;;5033768;28;20032;-45
2021/12/03 01:00:05;;;;;;;11.10;6.03;;;;;;;;;;5033791;28;20029;-48
2021/12/03 01:02:31;;;;;;;11.98;6.70;;;;;;;;;;5033612;28;20036;-45
2021/12/03 01:04:57;;;;;;;6.55;4.53;;;;;;;;;;5033687;28;20042;-46
2021/12/03 01:07:23;;;;;;;9.15;5.75;;;;;;;;;;5033592;28;20104;-45
2021/12/03 01:09:49;;;;;;;9.10;6.10;;;;;;;;;;5033518;28;20097;-45
2021/12/03 01:12:15;;;;;;;14.00;8.10;;;;;;;;;;5033441;28;20021;-46
2021/12/03 01:14:44;;;;;;;8.43;5.65;;;;;;;;;;5033393;28;20106;-46
2021/12/03 01:17:10;;;;;;;10.95;5.82;;;;;;;;;;5033664;28;20111;-43
2021/12/03 01:19:37;;;;;;;11.25;5.93;;;;;;;;;;5033463;28;20033;-47
2021/12/03 01:22:03;;;;;;;10.73;5.72;;;;;;;;;;5033575;28;20120;-46
2021/12/03 01:24:29;;;;;;;8.07;5.30;;;;;;;;;;5033322;28;20108;-47
2021/12/03 01:26:56;;;;;;;9.50;4.80;;;;;;;;;;5033290;28;20021;-47
2021/12/03 01:29:22;;;;;;;4.38;2.30;;;;;;;;;;5032708;28;20484;-47
2021/12/03 01:31:51;;;;;;;5.47;3.28;;;;;;;;;;5033475;28;20026;-47
2021/12/03 01:34:17;;;;;;;3.20;2.47;;;;;;;;;;5033512;28;20032;-46
2021/12/03 01:36:43;;;;;;;6.03;3.63;;;;;;;;;;5033562;28;20018;-47
2021/12/03 01:39:11;;;;;;;4.65;2.85;;;;;;;;;;5033347;28;20064;-47
2021/12/03 01:41:37;;;;;;;6.70;3.90;;;;;;;;;;5033792;28;20492;-46
2021/12/03 01:44:04;;;;;;;4.95;3.20;;;;;;;;;;5033039;28;20064;-45
2021/12/03 01:46:31;;;;;;;7.70;4.15;;;;;;;;;;5033239;28;20094;-47
2021/12/03 01:48:58;;;;;;;11.45;5.32;;;;;;;;;;5033191;28;20108;-47
2021/12/03 01:51:25;;;;;;;4.32;3.17;;;;;;;;;;5033236;28;20049;-48
2021/12/03 01:53:52;;;;;;;3.80;2.25;;;;;;;;;;5033279;28;20018;-45
2021/12/03 01:56:19;;;;;;;7.60;3.78;;;;;;;;;;5033341;28;20029;-46
2021/12/03 01:58:47;;;;;;;8.60;4.15;;;;;;;;;;5033285;28;20018;-46
2021/12/03 02:01:15;;;;;;;4.35;2.90;;;;;;;;;;5036870;28;20022;-46
2021/12/03 02:03:42;;;;;;;5.60;3.33;;;;;;;;;;5037534;28;20041;-45
2021/12/03 02:06:10;;;;;;;6.65;4.15;;;;;;;;;;5037227;28;20468;-47
2021/12/03 02:08:36;;;;;;;7.57;3.65;;;;;;;;;;5037137;28;20523;-46
2021/12/03 02:11:07;;;;;;;5.90;3.90;;;;;;;;;;5037062;28;20037;-47
2021/12/03 02:13:34;;;;;;;8.23;4.82;;;;;;;;;;5037094;28;20156;-47
2021/12/03 02:16:00;;;;;;;6.40;3.33;;;;;;;;;;5036791;28;20045;-47
2021/12/03 02:18:26;;;;;;;7.88;4.90;;;;;;;;;;5036968;28;20022;-46
2021/12/03 02:20:53;;;;;;;8.05;4.30;;;;;;;;;;5036812;28;20026;-45
2021/12/03 02:23:20;;;;;;;7.03;4.07;;;;;;;;;;5036850;28;20025;-46
2021/12/03 02:25:49;;;;;;;6.57;3.67;;;;;;;;;;5036644;28;20033;-45
2021/12/03 02:28:16;;;;;;;5.63;3.40;;;;;;;;;;5036652;28;20024;-46
2021/12/03 02:30:42;;;;;;;5.70;3.38;;;;;;;;;;5036678;28;20108;-47
2021/12/03 02:33:11;;;;;;;7.65;3.38;;;;;;;;;;5036734;28;20022;-46
2021/12/03 02:35:40;;;;;;;6.32;3.38;;;;;;;;;;5036604;28;20022;-46
2021/12/03 02:38:06;;;;;;;4.63;2.83;;;;;;;;;;5036430;28;20100;-45
2021/12/03 02:40:33;;;;;;;5.50;2.35;;;;;;;;;;5036424;28;20032;-46
2021/12/03 02:42:59;;;;;;;4.07;2.00;;;;;;;;;;5036566;28;20024;-46
2021/12/03 02:45:25;;;;;;;3.88;2.15;;;;;;;;;;5036250;28;20117;-45
2021/12/03 02:47:51;;;;;;;5.55;3.30;;;;;;;;;;5036582;28;20087;-45
2021/12/03 02:50:18;;;;;;;6.32;3.10;;;;;;;;;;5036299;28;20437;-46
2021/12/03 02:52:45;;;;;;;4.82;2.55;;;;;;;;;;5034772;28;20120;-45
2021/12/03 02:55:12;;;;;;;7.80;3.28;;;;;;;;;;5036083;28;20072;-47
2021/12/03 02:57:38;;;;;;;3.28;1.90;;;;;;;;;;5036268;28;20026;-47
2021/12/03 03:00:06;;;;;;;5.32;2.75;;;;;;;;;;5036172;28;20021;-46
2021/12/03 03:02:32;;;;;;;4.90;2.30;;;;;;;;;;5035944;28;20155;-48
2021/12/03 03:04:58;;;;;;;5.93;3.25;;;;;;;;;;5036017;28;20037;-48
2021/12/03 03:07:25;;;;;;;3.22;1.98;;;;;;;;;;5035833;28;20033;-47
2021/12/03 03:09:51;;;;;;;3.80;2.17;;;;;;;;;;5036389;28;20111;-55
2021/12/03 03:12:17;;;;;;;3.53;2.03;;;;;;;;;;5034949;28;20377;-47
2021/12/03 03:14:48;;;;;;;2.88;1.52;;;;;;;;;;5035528;28;20076;-47
2021/12/03 03:17:14;;;;;;;6.25;3.03;;;;;;;;;;5035859;28;20030;-49
2021/12/03 03:19:41;;;;;;;5.53;3.03;;;;;;;;;;5034796;28;20025;-48
2021/12/03 03:22:07;;;;;;;3.50;2.30;;;;;;;;;;5035718;28;20482;-48
2021/12/03 03:24:33;;;;;;;5.10;2.00;;;;;;;;;;5035482;28;20482;-45
2021/12/03 03:26:59;;;;;;;3.17;1.95;;;;;;;;;;5035442;28;20030;-45
2021/12/03 03:29:26;;;;;;;4.97;2.15;;;;;;;;;;5035694;28;20029;-46
2021/12/03 03:31:52;;;;;;;4.38;1.75;;;;;;;;;;5035641;28;20021;-45
2021/12/03 03:34:18;;;;;;;4.57;2.33;;;;;;;;;;5035512;28;20029;-46
2021/12/03 03:36:44;;;;;;;7.03;2.88;;;;;;;;;;5035452;28;20025;-46
2021/12/03 03:39:12;;;;;;;3.15;1.67;;;;;;;;;;5035353;28;20470;-46
2021/12/03 03:41:38;;;;;;;2.42;1.50;;;;;;;;;;5035473;28;20100;-45
2021/12/03 03:44:04;;;;;;;3.78;1.92;;;;;;;;;;5035179;28;20038;-45
2021/12/03 03:46:31;;;;;;;5.18;1.98;;;;;;;;;;5035195;28;20145;-47
2021/12/03 03:49:01;;;;;;;3.10;1.55;;;;;;;;;;5035099;28;20104;-46
2021/12/03 03:51:28;;;;;;;4.90;2.63;;;;;;;;;;5033668;28;20520;-47
2021/12/03 03:53:54;;;;;;;5.55;2.58;;;;;;;;;;5033702;28;20492;-46
2021/12/03 03:56:20;;;;;;;6.38;2.92;;;;;;;;;;5034817;28;20021;-46
2021/12/03 03:58:46;;;;;;;3.95;2.50;;;;;;;;;;5034955;28;20053;-45
2021/12/03 04:01:13;;;;;;;3.13;1.90;;;;;;;;;;5034856;28;20025;-47
2021/12/03 04:03:41;;;;;;;5.05;2.40;;;;;;;;;;5034696;28;20035;-46
2021/12/03 04:06:07;;;;;;;5.75;2.65;;;;;;;;;;5034914;28;20027;-45
2021/12/03 04:08:33;;;;;;;3.88;1.40;;;;;;;;;;5034593;28;20484;-47
2021/12/03 04:11:02;;;;;;;4.75;2.25;;;;;;;;;;5034741;28;20432;-46
2021/12/03 04:13:28;;;;;;;3.92;2.15;;;;;;;;;;5034618;28;20033;-46
2021/12/03 04:15:54;;;;;;;3.15;2.33;;;;;;;;;;5034478;28;20070;-44
2021/12/03 04:18:20;;;;;;;1.20;1.10;;;;;;;;;;5034758;28;20022;-46
2021/12/03 04:20:47;;;;;;;1.42;1.33;;;;;;;;;;5033388;28;20053;-45
2021/12/03 04:23:18;;;;;;;3.33;2.30;;;;;;;;;;5034241;28;20037;-47
2021/12/03 04:25:44;;;;;;;2.58;1.92;;;;;;;;;;5034282;28;20021;-47
2021/12/03 04:28:15;;;;;;;3.88;2.90;;;;;;;;;;5034603;28;20377;-45
2021/12/03 04:30:41;;;;;;;3.13;2.30;;;;;;;;;;5034444;28;20036;-47
2021/12/03 04:33:07;;;;;;;2.47;2.10;;;;;;;;;;5034280;28;20032;-47
2021/12/03 04:35:34;;;;;;;7.10;4.07;;;;;;;;;;5034233;28;20057;-46
2021/12/03 04:38:00;;;;;;;12.65;6.32;;;;;;;;;;5032970;28;20057;-46
2021/12/03 04:40:29;;;;;;;27.27;12.23;;;;;;;;;;5034164;28;20031;-46
2021/12/03 04:42:55;;;;;;;21.15;10.82;;;;;;;;;;5033897;28;20075;-45
2021/12/03 04:45:23;;;;;;;41.80;17.10;;;;;;;;;;5034146;28;20029;-46
2021/12/03 04:47:50;;;;;;;37.58;17.63;;;;;;;;;;5033824;28;20052;-45
2021/12/03 04:50:17;;;;;;;33.50;15.52;;;;;;;;;;5033896;28;20488;-45
2021/12/03 04:52:43;;;;;;;34.42;16.60;;;;;;;;;;5032488;28;20086;-45
2021/12/03 04:55:09;;;;;;;35.13;18.85;;;;;;;;;;5033750;28;20026;-45
2021/12/03 04:57:36;;;;;;;38.28;19.00;;;;;;;;;;5033895;28;20392;-45
2021/12/03 05:00:04;;;;;;;26.42;13.13;;;;;;;;;;5033746;28;20021;-45
2021/12/03 05:02:30;;;;;;;33.75;17.58;;;;;;;;;;5033616;28;20029;-46
2021/12/03 05:05:01;;;;;;;40.20;21.48;;;;;;;;;;5033565;28;20033;-46
2021/12/03 05:07:30;;;;;;;38.83;18.77;;;;;;;;;;5033643;28;20033;-46
2021/12/03 05:09:57;;;;;;;24.48;13.50;;;;;;;;;;5033527;28;20381;-46
2021/12/03 05:12:23;;;;;;;40.30;18.33;;;;;;;;;;5033683;28;20052;-46
2021/12/03 05:14:49;;;;;;;25.70;12.82;;;;;;;;;;5033364;28;20417;-47
2021/12/03 05:17:16;;;;;;;28.52;14.55;;;;;;;;;;5033455;28;20025;-46
2021/12/03 05:19:42;;;;;;;48.72;23.15;;;;;;;;;;5033591;28;20371;-46
2021/12/03 05:22:08;;;;;;;43.30;21.40;;;;;;;;;;5033245;28;20520;-46
2021/12/03 05:24:34;;;;;;;27.45;15.88;;;;;;;;;;5033446;28;20048;-47
2021/12/03 05:27:00;;;;;;;22.85;12.95;;;;;;;;;;5033259;28;20029;-46
2021/12/03 05:29:26;;;;;;;34.33;17.98;;;;;;;;;;5033420;28;20067;-46
2021/12/03 05:31:52;;;;;;;28.92;15.55;;;;;;;;;;5033306;28;20029;-45
2021/12/03 05:34:20;;;;;;;31.67;16.77;;;;;;;;;;5032818;28;20496;-46
2021/12/03 05:36:48;;;;;;;33.58;17.75;;;;;;;;;;5033291;28;20155;-46
2021/12/03 05:39:14;;;;;;;50.83;25.10;;;;;;;;;;5033114;28;20052;-46
2021/12/03 05:41:41;;;;;;;27.83;16.98;;;;;;;;;;5033420;28;20385;-46
2021/12/03 05:44:07;;;;;;;38.72;21.40;;;;;;;;;;5033032;28;20095;-45
2021/12/03 05:46:33;;;;;;;44.55;23.83;;;;;;;;;;5033358;28;20105;-46
2021/12/03 05:48:59;;;;;;;31.63;17.70;;;;;;;;;;5033260;28;20040;-46
2021/12/03 05:51:28;;;;;;;24.92;14.23;;;;;;;;;;5033736;28;20021;-46
2021/12/03 05:53:54;;;;;;;24.13;14.05;;;;;;;;;;5032922;28;20504;-45
2021/12/03 05:56:21;;;;;;;64.57;32.10;;;;;;;;;;5033254;28;20030;-46
2021/12/03 05:58:48;;;;;;;54.53;28.40;;;;;;;;;;5033036;28;20022;-44
2021/12/03 06:01:14;;;;;;;66.82;31.23;;;;;;;;;;5033201;28;20070;-44
2021/12/03 06:03:40;;;;;;;36.15;20.45;;;;;;;;;;5032880;28;20032;-44
2021/12/03 06:06:07;;;;;;;47.13;24.80;;;;;;;;;;5033223;28;20484;-45
2021/12/03 06:08:33;;;;;;;58.00;27.58;;;;;;;;;;5031962;28;20040;-44
2021/12/03 06:10:59;;;;;;;38.30;21.15;;;;;;;;;;5033192;28;20084;-44
2021/12/03 06:13:25;;;;;;;44.90;22.63;;;;;;;;;;5032779;28;20488;-44
2021/12/03 06:15:54;;;;;;;24.48;13.48;;;;;;;;;;5032849;28;20045;-45
2021/12/03 06:18:22;;;;;;;26.00;14.60;;;;;;;;;;5032936;28;20041;-44
2021/12/03 06:20:48;;;;;;;18.40;12.20;;;;;;;;;;5032876;28;20017;-44
2021/12/03 06:23:14;;;;;;;23.27;14.70;;;;;;;;;;5032472;28;20361;-44
2021/12/03 06:25:40;;;;;;;21.73;13.75;;;;;;;;;;5033176;28;20053;-43
2021/12/03 06:28:07;;;;;;;21.90;13.70;;;;;;;;;;5033108;28;20045;-45
2021/12/03 06:30:33;;;;;;;20.60;11.43;;;;;;;;;;5033169;28;20022;-46
2021/12/03 06:32:59;;;;;;;18.52;12.30;;;;;;;;;;5033170;28;20097;-49
2021/12/03 06:35:26;;;;;;;22.20;12.70;;;;;;;;;;5033194;28;20022;-46
2021/12/03 06:37:52;;;;;;;20.17;11.73;;;;;;;;;;5032823;28;20025;-45
2021/12/03 06:40:22;;;;;;;16.38;9.45;;;;;;;;;;5032769;28;20022;-45
2021/12/03 06:42:48;;;;;;;16.88;10.25;;;;;;;;;;5032900;28;20064;-44
2021/12/03 06:45:15;;;;;;;17.42;10.48;;;;;;;;;;5032744;28;20033;-46
2021/12/03 06:47:41;;;;;;;17.05;9.75;;;;;;;;;;5035014;28;20036;-45
2021/12/03 06:50:09;;;;;;;14.38;8.40;;;;;;;;;;5036094;28;20477;-45
2021/12/03 06:52:37;;;;;;;14.27;8.30;;;;;;;;;;5036234;28;20429;-44
2021/12/03 06:55:09;;;;;;;11.55;7.63;;;;;;;;;;5034935;28;20151;-44
2021/12/03 06:57:35;;;;;;;;;;;;;;;;;;5036826;28;20547;-51
2021/12/03 07:00:01;;;;;;;12.02;8.13;;;;;;;;;;5034640;28;19912;-44
2021/12/03 07:02:27;;;;;;;19.17;9.95;;;;;;;;;;5035858;28;20033;-45
2021/12/03 07:04:53;;;;;;;16.10;9.38;;;;;;;;;;5035674;28;20079;-44
2021/12/03 07:07:19;;;;;;;16.00;9.15;;;;;;;;;;5035864;28;20473;-44
2021/12/03 07:09:48;;;;;;;18.90;11.00;;;;;;;;;;5035968;28;20096;-44
2021/12/03 07:12:15;;;;;;;20.50;12.63;;;;;;;;;;5035744;28;20083;-44
2021/12/03 07:14:41;;;;;;;17.27;11.07;;;;;;;;;;5035436;28;20060;-45
2021/12/03 07:17:08;;;;;;;17.80;11.40;;;;;;;;;;5036132;28;20303;-47
2021/12/03 07:19:34;;;;;;;16.88;10.68;;;;;;;;;;5035551;28;20393;-47
2021/12/03 07:22:00;;;;;;;18.33;10.48;;;;;;;;;;5035391;28;20033;-45
2021/12/03 07:24:27;;;;;;;18.10;10.38;;;;;;;;;;5034182;28;20041;-47
2021/12/03 07:26:53;;;;;;;17.73;9.75;;;;;;;;;;5035490;28;20025;-46
2021/12/03 07:29:19;;;;;;;15.88;10.10;;;;;;;;;;5035443;28;20025;-46
2021/12/03 07:31:45;;;;;;;15.48;9.18;;;;;;;;;;5035515;28;20067;-46
2021/12/03 07:34:12;;;;;;;15.20;8.95;;;;;;;;;;5035327;28;20021;-47
2021/12/03 07:36:40;;;;;;;12.57;9.25;;;;;;;;;;5035275;28;20029;-47
2021/12/03 07:39:06;;;;;;;18.55;11.55;;;;;;;;;;5035112;28;20148;-46
2021/12/03 07:41:36;;;;;;;21.30;13.13;;;;;;;;;;5035411;28;20436;-47
2021/12/03 07:44:02;;;;;;;30.05;19.30;;;;;;;;;;5035118;28;20061;-47
2021/12/03 07:46:31;;;;;;;29.45;19.00;;;;;;;;;;5035136;28;20393;-47
2021/12/03 07:48:57;;;;;;;29.05;17.02;;;;;;;;;;5035317;28;20140;-46
2021/12/03 07:51:23;;;;;;;27.17;15.35;;;;;;;;;;5034911;28;20104;-47
2021/12/03 07:53:49;;;;;;;23.73;14.57;;;;;;;;;;5034738;28;20021;-45
2021/12/03 07:56:18;;;;;;;29.13;17.75;;;;;;;;;;5034873;28;20025;-47
2021/12/03 07:58:44;;;;;;;26.05;15.80;;;;;;;;;;5034531;28;20028;-46
2021/12/03 08:01:10;;;;;;;29.30;18.00;;;;;;;;;;5034939;28;20029;-47
2021/12/03 08:03:36;;;;;;;35.55;18.13;;;;;;;;;;5034803;28;20032;-46
2021/12/03 08:06:09;;;;;;;32.30;18.58;;;;;;;;;;5034720;28;20029;-47
2021/12/03 08:08:38;;;;;;;43.17;23.50;;;;;;;;;;5034719;28;20469;-46
2021/12/03 08:11:06;;;;;;;44.50;22.10;;;;;;;;;;5034902;28;20030;-46
2021/12/03 08:13:34;;;;;;;34.80;20.00;;;;;;;;;;5034563;28;20017;-47
2021/12/03 08:16:00;;;;;;;29.77;18.73;;;;;;;;;;5034369;28;20128;-46
2021/12/03 08:18:26;;;;;;;33.53;21.13;;;;;;;;;;5034415;28;20022;-44
2021/12/03 08:20:53;;;;;;;35.45;21.05;;;;;;;;;;5034348;28;20021;-46
2021/12/03 08:23:19;;;;;;;41.53;23.45;;;;;;;;;;5034254;28;20022;-47
2021/12/03 08:25:46;;;;;;;25.77;18.00;;;;;;;;;;5034399;28;20033;-44
2021/12/03 08:28:12;;;;;;;39.42;21.00;;;;;;;;;;5034675;28;20108;-48
2021/12/03 08:30:39;;;;;;;38.25;22.35;;;;;;;;;;5032781;28;20440;-47
2021/12/03 08:33:05;;;;;;;27.25;15.70;;;;;;;;;;5034232;28;20018;-46
2021/12/03 08:35:31;;;;;;;30.65;17.85;;;;;;;;;;5034059;28;20389;-46
2021/12/03 08:37:58;;;;;;;32.72;19.73;;;;;;;;;;5034154;28;20028;-47
2021/12/03 08:40:24;;;;;;;36.20;20.70;;;;;;;;;;5034271;28;20107;-45
2021/12/03 08:42:51;;;;;;;38.45;20.92;;;;;;;;;;5034106;28;20021;-47
2021/12/03 08:45:18;;;;;;;32.40;21.15;;;;;;;;;;5034105;28;20373;-45
2021/12/03 08:47:55;;;;;;;30.90;20.52;;;;;;;;;;5033904;28;20029;-47
2021/12/03 08:50:28;;;;;;;28.98;17.92;;;;;;;;;;5033827;28;20025;-46
2021/12/03 08:55:33;;;;;;;31.27;19.65;;;;;;;;;;5033879;28;20072;-46
2021/12/03 08:57:59;;;;;;;39.30;24.17;;;;;;;;;;5033852;28;20022;-48
2021/12/03 09:00:25;;;;;;;49.53;29.17;;;;;;;;;;5033896;28;20105;-45
2021/12/03 09:02:51;;;;;;;45.85;27.55;;;;;;;;;;5033805;28;20104;-46
2021/12/03 09:05:18;;;;;;;32.72;20.35;;;;;;;;;;5032271;28;20382;-45
2021/12/03 09:07:44;;;;;;;34.70;22.30;;;;;;;;;;5033648;28;20022;-46
2021/12/03 09:10:13;;;;;;;37.90;21.95;;;;;;;;;;5033106;28;20021;-44
2021/12/03 09:12:39;;;;;;;45.55;25.27;;;;;;;;;;5033788;28;20101;-45
2021/12/03 09:15:09;;;;;;;43.30;24.85;;;;;;;;;;5033492;28;20424;-46
2021/12/03 09:17:58;;;;;;;41.17;22.90;;;;;;;;;;5033437;28;20025;-46
2021/12/03 09:22:58;;;;;;;40.88;25.23;;;;;;;;;;5033321;28;20076;-45
2021/12/03 09:25:32;;;;;;;30.92;20.52;;;;;;;;;;5033205;28;20482;-47
2021/12/03 09:28:02;;;;;;;33.05;21.40;;;;;;;;;;5033355;28;20056;-46
2021/12/03 09:30:41;;;;;;;27.75;18.63;;;;;;;;;;5033181;28;20022;-46
2021/12/03 09:33:10;;;;;;;32.17;20.10;;;;;;;;;;5033759;28;20022;-46
2021/12/03 09:35:44;;;;;;;32.80;20.77;;;;;;;;;;5033189;28;20025;-45
2021/12/03 09:38:10;;;;;;;35.53;21.30;;;;;;;;;;5033320;28;20013;-46
2021/12/03 09:40:36;;;;;;;38.55;22.98;;;;;;;;;;5033275;28;20037;-47
2021/12/03 09:43:04;;;;;;;40.38;23.33;;;;;;;;;;5031831;28;20027;-46
2021/12/03 09:45:30;;;;;;;41.03;24.50;;;;;;;;;;5033401;28;20045;-47
2021/12/03 09:47:57;;;;;;;41.50;23.95;;;;;;;;;;5033138;28;20064;-47
2021/12/03 09:50:23;;;;;;;33.38;19.75;;;;;;;;;;5033194;28;20071;-45
2021/12/03 09:53:10;;;;;;;38.08;22.45;;;;;;;;;;5033161;28;20025;-46
2021/12/03 09:55:37;;;;;;;33.45;18.90;;;;;;;;;;5033014;28;20025;-46
2021/12/03 09:58:38;;;;;;;40.90;25.35;;;;;;;;;;5033279;28;20030;-46
2021/12/03 10:01:11;;;;;;;39.33;22.75;;;;;;;;;;5033005;28;20121;-46
2021/12/03 10:04:13;;;;;;;37.00;21.42;;;;;;;;;;5033471;28;20044;-46
2021/12/03 10:20:15;;;;;;;43.38;22.30;;;;;;;;;;4972010;28;20437;-46
2021/12/03 10:38:50;;;;;;;40.47;17.88;;;;;;;;;;4975365;28;20027;-44
2021/12/03 10:49:39;;;;;;;44.72;21.27;;;;;;;;;;4995200;28;20521;-46
2021/12/03 12:12:33;;;;;;;22.40;9.00;;;;;;;;;;4879076;29;20135;-50
2021/12/03 13:42:03;;;;;;;40.00;17.60;;;;;;;;;;4953205;28;20398;-44
2021/12/03 14:02:07;;;;;;;93.63;36.08;;;;;;;;;;5036631;28;20041;-49
2021/12/03 14:33:08;;;;;;;47.83;18.23;;;;;;;;;;5014057;28;20045;-53
2021/12/03 14:37:16;;;;;;;45.28;17.35;;;;;;;;;;5014027;28;20061;-43
2021/12/03 14:45:10;;;;;;;48.95;21.98;;;;;;;;;;5014183;28;20037;-44
2021/12/03 14:55:38;;;;;;;83.40;36.13;;;;;;;;;;5035960;28;20037;-43
2021/12/03 15:04:28;;;;;;;55.38;24.13;;;;;;;;;;5013986;28;20041;-52
2021/12/03 15:07:05;;;;;;;46.78;21.30;;;;;;;;;;5012962;28;20034;-50
2021/12/03 15:09:38;;;;;;;59.22;28.30;;;;;;;;;;4997370;28;20161;-49
2021/12/03 15:20:17;;;;;;;64.50;24.70;;;;;;;;;;5013526;28;20033;-44
2021/12/03 15:28:27;;;;;;;83.22;28.25;;;;;;;;;;5013555;28;20052;-57
2021/12/03 15:31:07;;;;;;;87.93;32.10;;;;;;;;;;5013416;28;20169;-46
2021/12/03 15:36:05;;;;;;;83.65;32.05;;;;;;;;;;5013855;28;20054;-43
2021/12/03 15:57:25;;;;;;;96.43;38.63;;;;;;;;;;4973990;28;20038;-45
2021/12/03 16:45:59;;;;;;;79.60;33.33;;;;;;;;;;5013807;28;20052;-50
2021/12/03 16:53:27;;;;;;;93.53;38.33;;;;;;;;;;5014144;28;20451;-47
2021/12/03 16:58:28;;;;;;;60.17;26.67;;;;;;;;;;5013941;28;20066;-47
2021/12/03 17:01:06;;;;;;;63.47;25.92;;;;;;;;;;5013998;28;20105;-45
2021/12/03 17:03:57;;;;;;;79.85;29.05;;;;;;;;;;5013955;28;20021;-45
2021/12/03 17:25:13;;;;;;;73.47;29.52;;;;;;;;;;5011311;28;20081;-53
2021/12/03 17:30:34;;;;;;;66.55;26.80;;;;;;;;;;5011065;28;20145;-54
2021/12/03 17:59:48;;;;;;;61.97;24.63;;;;;;;;;;5011856;28;20053;-43
2021/12/03 18:07:20;;;;;;;82.38;32.47;;;;;;;;;;5032656;28;20048;-44
2021/12/03 18:48:37;;;;;;;134.20;54.35;;;;;;;;;;5014778;28;20056;-52
2021/12/03 18:56:09;;;;;;;96.43;40.75;;;;;;;;;;5036065;28;20040;-50
2021/12/03 18:58:36;;;;;;;89.38;36.90;;;;;;;;;;5035810;28;20022;-50
2021/12/03 19:01:02;;;;;;;65.53;30.58;;;;;;;;;;5035838;28;20046;-50
2021/12/03 19:08:35;;;;;;;80.55;35.22;;;;;;;;;;5035712;28;20026;-53
2021/12/03 19:13:52;;;;;;;56.92;23.90;;;;;;;;;;5013678;28;20467;-55
2021/12/03 19:16:22;;;;;;;46.80;20.55;;;;;;;;;;5013323;28;20054;-44
2021/12/03 19:18:52;;;;;;;51.13;22.95;;;;;;;;;;4997212;28;20030;-55
2021/12/03 19:21:24;;;;;;;50.57;20.13;;;;;;;;;;5013675;28;20026;-56
2021/12/03 19:23:50;;;;;;;;;;;;;;;;;;5014159;28;20030;-52
2021/12/03 19:26:18;;;;;;;51.03;21.80;;;;;;;;;;5013443;28;19921;-57
2021/12/03 19:28:44;;;;;;;38.55;17.77;;;;;;;;;;5013596;28;20385;-56
2021/12/03 19:31:13;;;;;;;40.00;18.52;;;;;;;;;;5013537;28;20062;-58
2021/12/03 19:33:40;;;;;;;50.40;20.70;;;;;;;;;;5013083;28;20060;-55
2021/12/03 19:36:06;;;;;;;47.60;22.30;;;;;;;;;;5012673;28;20036;-56
2021/12/03 19:38:37;;;;;;;44.75;19.85;;;;;;;;;;5012916;28;20060;-58
2021/12/03 19:41:12;;;;;;;31.35;16.52;;;;;;;;;;5013019;28;20037;-53
2021/12/03 19:43:44;;;;;;;36.63;17.27;;;;;;;;;;5012968;28;20421;-57
2021/12/03 19:46:14;;;;;;;23.52;11.85;;;;;;;;;;5012662;28;20500;-57
2021/12/03 19:48:50;;;;;;;33.67;15.27;;;;;;;;;;5012620;28;20089;-55
2021/12/03 19:51:19;;;;;;;39.67;15.55;;;;;;;;;;5025004;28;20041;-55
2021/12/03 19:53:54;;;;;;;39.95;17.38;;;;;;;;;;5033699;28;20043;-55
2021/12/03 19:56:21;;;;;;;38.38;15.98;;;;;;;;;;5034809;28;20025;-55
2021/12/03 19:58:47;;;;;;;33.35;14.68;;;;;;;;;;5034901;28;20029;-54
2021/12/03 20:01:14;;;;;;;34.58;15.63;;;;;;;;;;5034404;28;20032;-52
2021/12/03 20:03:41;;;;;;;27.95;13.75;;;;;;;;;;5034321;28;20030;-57
2021/12/03 20:06:07;;;;;;;28.45;15.02;;;;;;;;;;5034159;28;20029;-57
2021/12/03 20:08:35;;;;;;;54.05;25.05;;;;;;;;;;5034478;28;20018;-56
2021/12/03 20:11:05;;;;;;;40.55;17.00;;;;;;;;;;5034244;28;20034;-57
2021/12/03 20:13:31;;;;;;;29.73;13.65;;;;;;;;;;5034150;28;20025;-56
2021/12/03 20:21:01;;;;;;;31.98;13.65;;;;;;;;;;5030073;28;20351;-50
2021/12/03 20:30:03;;;;;;;46.97;17.70;;;;;;;;;;4993925;28;20109;-52
2021/12/03 20:32:12;;;;;;;44.20;18.77;;;;;;;;;;4989497;28;20029;-51
2021/12/03 20:37:17;;;;;;;47.60;20.55;;;;;;;;;;4993852;28;20605;-50
2021/12/03 20:39:45;;;;;;;52.88;24.17;;;;;;;;;;4993449;28;20037;-51
2021/12/03 20:42:29;;;;;;;41.78;20.15;;;;;;;;;;4993938;28;20368;-50
2021/12/03 20:45:19;;;;;;;63.35;26.90;;;;;;;;;;4993138;28;20261;-46
2021/12/03 20:58:18;;;;;;;39.10;16.88;;;;;;;;;;4993791;28;20030;-53
2021/12/03 21:08:57;;;;;;;70.07;28.40;;;;;;;;;;5029578;28;20064;-54
2021/12/03 21:11:33;;;;;;;75.30;30.35;;;;;;;;;;5028986;28;20036;-52
2021/12/03 21:14:03;;;;;;;74.50;28.42;;;;;;;;;;5029426;28;20029;-45
2021/12/03 21:20:29;;;;;;;84.45;28.73;;;;;;;;;;4998462;28;20432;-51
2021/12/03 21:22:24;;;;;;;69.93;24.77;;;;;;;;;;4980345;28;20040;-46
2021/12/03 21:24:53;;;;;;;57.67;23.33;;;;;;;;;;4998239;28;20025;-50
2021/12/03 21:27:31;;;;;;;64.32;24.05;;;;;;;;;;4998456;28;20030;-53
2021/12/03 21:30:13;;;;;;;47.17;20.17;;;;;;;;;;4998485;28;20071;-51
2021/12/03 21:39:19;;;;;;;38.72;16.15;;;;;;;;;;4916370;29;20467;-52
2021/12/03 21:43:41;;;;;;;63.67;28.10;;;;;;;;;;4915799;29;20028;-47
2021/12/03 21:46:07;;;;;;;85.40;34.75;;;;;;;;;;4915846;29;20142;-48
2021/12/03 21:48:33;;;;;;;72.82;29.95;;;;;;;;;;4916084;29;20040;-48
2021/12/03 21:50:59;;;;;;;82.25;32.65;;;;;;;;;;4915403;29;20039;-52
2021/12/03 21:53:25;;;;;;;96.57;40.55;;;;;;;;;;4916180;29;20471;-45
2021/12/03 21:55:54;;;;;;;97.63;41.40;;;;;;;;;;4929222;28;20465;-53
2021/12/03 21:58:20;;;;;;;115.55;45.67;;;;;;;;;;4940955;28;20028;-57
2021/12/03 22:00:48;;;;;;;89.25;36.45;;;;;;;;;;4940105;28;20125;-52
2021/12/03 22:03:14;;;;;;;87.28;37.13;;;;;;;;;;4941239;28;20750;-51
2021/12/03 22:05:40;;;;;;;73.80;31.30;;;;;;;;;;4940767;28;20429;-51
2021/12/03 22:08:15;;;;;;;62.53;24.80;;;;;;;;;;4940139;28;20031;-50
2021/12/03 22:10:41;;;;;;;66.70;25.75;;;;;;;;;;4941308;28;20027;-54
2021/12/03 22:13:08;;;;;;;63.75;27.67;;;;;;;;;;5002981;28;20037;-49
2021/12/03 22:15:34;;;;;;;57.88;24.13;;;;;;;;;;5027151;28;20183;-49
2021/12/03 22:18:01;;;;;;;53.92;22.35;;;;;;;;;;5032178;28;20336;-47
2021/12/03 22:20:27;;;;;;;68.75;30.40;;;;;;;;;;5032643;28;20032;-51
2021/12/03 22:22:53;;;;;;;66.30;28.85;;;;;;;;;;5026868;28;20702;-51
2021/12/03 22:25:19;;;;;;;54.97;24.33;;;;;;;;;;5032344;28;20439;-52
2021/12/03 22:27:45;;;;;;;37.72;18.20;;;;;;;;;;5030986;28;20033;-49
2021/12/03 22:30:12;;;;;;;52.08;24.27;;;;;;;;;;5032375;28;20043;-53
2021/12/03 22:32:38;;;;;;;69.90;33.33;;;;;;;;;;5032641;28;20029;-54
2021/12/03 22:35:04;;;;;;;47.25;22.38;;;;;;;;;;5032617;28;20029;-52
2021/12/03 22:37:30;;;;;;;47.97;22.48;;;;;;;;;;5032367;28;20020;-56
2021/12/03 22:39:57;;;;;;;59.92;21.90;;;;;;;;;;5032323;28;20030;-47
2021/12/03 22:42:23;;;;;;;38.38;19.75;;;;;;;;;;5031449;28;20021;-52
2021/12/03 22:44:49;;;;;;;56.03;21.45;;;;;;;;;;5030522;28;20033;-48
2021/12/03 22:47:31;;;;;;;60.70;25.92;;;;;;;;;;5032890;28;20067;-50
2021/12/03 22:52:38;;;;;;;62.85;25.80;;;;;;;;;;5031469;28;20094;-50
2021/12/03 22:55:06;;;;;;;46.22;20.45;;;;;;;;;;5028805;28;20441;-50
2021/12/03 22:57:32;;;;;;;48.05;21.30;;;;;;;;;;5031974;28;20528;-48
2021/12/03 22:59:58;;;;;;;35.67;17.45;;;;;;;;;;5031587;28;20059;-49
2021/12/03 23:02:25;;;;;;;47.20;20.50;;;;;;;;;;5030175;28;20025;-48
2021/12/03 23:04:51;;;;;;;47.58;20.63;;;;;;;;;;5031673;28;20014;-50
2021/12/03 23:07:18;;;;;;;60.75;28.58;;;;;;;;;;5029247;28;20733;-49